Mill Spring, Missouri
Current Conditions -  °F | °C
As of 6:53 AM on Thursday 30 Oct 2014 (Local Time) from KPOF Reporting Station
Clear Clear  
Wind Chill:   Ceiling: Unl
Heat Index:   Visibility: 10mi
Dew Point:   Wind: 0mph
Humidity: 89%   Direction: NA
Pressure: 30.16"   Gusts: NA
Location:  37.06°N, 90.68°W
Report Text: KPOF 301153Z AUTO 00000KT 10SM CLR 02/00 A3016 RMK AO2 SLP217 T00170000 10039 20017 50001
Loading
Personal Weather Stations






























Interactive Weather Map
Tropical Storm Tracking
New forecast layout! Learn more

10-Day Weather Forecast

Advertisements
Track Severe Weather on mobile